sensor_id;sensor_type;location;lat;lon;timestamp;pressure;altitude;pressure_sealevel;temperature;humidity
22096;BME280;24083;55.670;37.568;2023-04-29T00:00:12;101264.34;;;5.86;40.75
22096;BME280;24083;55.670;37.568;2023-04-29T00:05:26;101348.59;;;6.95;40.83
22096;BME280;24083;55.670;37.568;2023-04-29T00:07:52;101232.41;;;5.81;40.78
22096;BME280;24083;55.670;37.568;2023-04-29T00:10:21;101244.00;;;6.94;40.84
22096;BME280;24083;55.670;37.568;2023-04-29T00:12:49;101171.38;;;6.45;40.76
22096;BME280;24083;55.670;37.568;2023-04-29T00:15:16;101100.31;;;5.56;40.71
22096;BME280;24083;55.670;37.568;2023-04-29T00:17:43;101052.19;;;6.14;40.71
22096;BME280;24083;55.670;37.568;2023-04-29T00:20:10;101045.94;;;7.43;40.74
22096;BME280;24083;55.670;37.568;2023-04-29T00:22:37;100716.41;;;6.13;40.70
22096;BME280;24083;55.670;37.568;2023-04-29T00:25:04;100508.53;;;6.95;40.71
22096;BME280;24083;55.670;37.568;2023-04-29T00:27:30;101094.47;;;6.93;40.71
22096;BME280;24083;55.670;37.568;2023-04-29T00:35:46;101094.16;;;5.35;41.64
22096;BME280;24083;55.670;37.568;2023-04-29T00:41:04;101172.25;;;7.27;44.73
22096;BME280;24083;55.670;37.568;2023-04-29T00:43:31;101205.13;;;6.93;43.08
22096;BME280;24083;55.670;37.568;2023-04-29T00:45:57;101213.75;;;7.34;44.44
22096;BME280;24083;55.670;37.568;2023-04-29T00:48:24;101114.13;;;5.58;nan
22096;BME280;24083;55.670;37.568;2023-04-29T00:50:52;101181.72;;;6.48;nan
22096;BME280;24083;55.670;37.568;2023-04-29T00:53:18;101189.53;;;7.18;nan
22096;BME280;24083;55.670;37.568;2023-04-29T00:55:46;101102.13;;;5.78;nan
22096;BME280;24083;55.670;37.568;2023-04-29T01:01:00;101106.59;;;6.46;nan
22096;BME280;24083;55.670;37.568;2023-04-29T01:03:29;101251.25;;;8.91;nan
22096;BME280;24083;55.670;37.568;2023-04-29T01:06:17;101080.50;;;7.44;nan
22096;BME280;24083;55.670;37.568;2023-04-29T01:11:12;100966.56;;;6.96;nan
22096;BME280;24083;55.670;37.568;2023-04-29T01:19:38;100905.34;;;6.56;nan
22096;BME280;24083;55.670;37.568;2023-04-29T01:22:09;100938.69;;;7.41;nan
22096;BME280;24083;55.670;37.568;2023-04-29T01:40:32;100902.06;;;7.83;nan
22096;BME280;24083;55.670;37.568;2023-04-29T01:43:08;100859.47;;;6.78;nan
22096;BME280;24083;55.670;37.568;2023-04-29T01:45:41;100919.03;;;6.95;nan
22096;BME280;24083;55.670;37.568;2023-04-29T01:48:11;101017.16;;;7.85;nan
22096;BME280;24083;55.670;37.568;2023-04-29T01:50:39;101020.84;;;7.46;nan
22096;BME280;24083;55.670;37.568;2023-04-29T01:53:09;101139.75;;;8.43;nan
22096;BME280;24083;55.670;37.568;2023-04-29T01:55:36;101159.63;;;8.51;nan
22096;BME280;24083;55.670;37.568;2023-04-29T01:58:18;101200.81;;;9.08;nan
22096;BME280;24083;55.670;37.568;2023-04-29T02:03:46;101168.84;;;8.95;nan
22096;BME280;24083;55.670;37.568;2023-04-29T02:06:15;101019.81;;;7.75;nan
22096;BME280;24083;55.670;37.568;2023-04-29T02:12:12;101061.94;;;9.87;nan
22096;BME280;24083;55.670;37.568;2023-04-29T02:14:39;101061.47;;;9.59;nan
22096;BME280;24083;55.670;37.568;2023-04-29T02:20:02;101037.06;;;7.85;nan
22096;BME280;24083;55.670;37.568;2023-04-29T02:22:28;101052.78;;;7.58;nan
22096;BME280;24083;55.670;37.568;2023-04-29T02:24:58;101188.34;;;9.46;nan
22096;BME280;24083;55.670;37.568;2023-04-29T02:27:23;101108.25;;;7.39;nan
22096;BME280;24083;55.670;37.568;2023-04-29T02:29:50;101111.75;;;7.04;nan
22096;BME280;24083;55.670;37.568;2023-04-29T02:32:18;101222.31;;;7.81;nan
22096;BME280;24083;55.670;37.568;2023-04-29T02:37:15;101102.25;;;7.00;nan
22096;BME280;24083;55.670;37.568;2023-04-29T02:39:41;101183.00;;;8.57;nan
22096;BME280;24083;55.670;37.568;2023-04-29T02:42:07;101247.75;;;9.89;nan
22096;BME280;24083;55.670;37.568;2023-04-29T02:44:36;101219.19;;;8.88;nan
22096;BME280;24083;55.670;37.568;2023-04-29T02:47:02;101264.31;;;8.84;nan
22096;BME280;24083;55.670;37.568;2023-04-29T02:49:30;101330.84;;;10.14;nan
22096;BME280;24083;55.670;37.568;2023-04-29T02:54:33;101276.75;;;8.13;nan
22096;BME280;24083;55.670;37.568;2023-04-29T02:56:59;101319.63;;;9.08;nan
22096;BME280;24083;55.670;37.568;2023-04-29T02:59:26;101292.06;;;8.82;nan
22096;BME280;24083;55.670;37.568;2023-04-29T03:01:55;101282.72;;;8.39;nan
22096;BME280;24083;55.670;37.568;2023-04-29T03:04:23;101242.25;;;7.55;nan
22096;BME280;24083;55.670;37.568;2023-04-29T03:06:51;101319.41;;;9.42;nan
22096;BME280;24083;55.670;37.568;2023-04-29T03:09:16;101211.06;;;7.80;nan
22096;BME280;24083;55.670;37.568;2023-04-29T03:11:44;101262.38;;;9.11;nan
22096;BME280;24083;55.670;37.568;2023-04-29T03:14:15;101270.47;;;8.69;nan
22096;BME280;24083;55.670;37.568;2023-04-29T03:16:41;101517.44;;;7.66;nan
22096;BME280;24083;55.670;37.568;2023-04-29T03:19:07;101288.13;;;7.07;nan
22096;BME280;24083;55.670;37.568;2023-04-29T03:24:51;101235.66;;;8.90;nan
22096;BME280;24083;55.670;37.568;2023-04-29T03:27:20;101366.81;;;8.08;nan
22096;BME280;24083;55.670;37.568;2023-04-29T03:29:47;101255.03;;;8.25;nan
22096;BME280;24083;55.670;37.568;2023-04-29T03:32:20;101224.94;;;7.70;nan
22096;BME280;24083;55.670;37.568;2023-04-29T03:34:46;101264.44;;;8.59;nan
22096;BME280;24083;55.670;37.568;2023-04-29T03:37:36;101259.13;;;8.78;nan
22096;BME280;24083;55.670;37.568;2023-04-29T03:40:16;101274.41;;;9.24;nan
22096;BME280;24083;55.670;37.568;2023-04-29T03:42:46;101224.13;;;6.93;nan
22096;BME280;24083;55.670;37.568;2023-04-29T03:45:12;101277.69;;;7.92;nan
22096;BME280;24083;55.670;37.568;2023-04-29T03:47:40;101261.28;;;7.57;nan
22096;BME280;24083;55.670;37.568;2023-04-29T03:50:07;101341.97;;;9.38;nan
22096;BME280;24083;55.670;37.568;2023-04-29T03:52:33;101726.44;;;8.97;nan
22096;BME280;24083;55.670;37.568;2023-04-29T03:55:08;101384.03;;;6.94;nan
22096;BME280;24083;55.670;37.568;2023-04-29T03:57:43;101261.28;;;6.88;nan
22096;BME280;24083;55.670;37.568;2023-04-29T04:00:12;101255.78;;;8.57;nan
22096;BME280;24083;55.670;37.568;2023-04-29T04:05:25;101186.88;;;7.60;nan
22096;BME280;24083;55.670;37.568;2023-04-29T04:08:06;101183.50;;;7.23;nan
22096;BME280;24083;55.670;37.568;2023-04-29T04:10:44;101208.47;;;7.77;nan
22096;BME280;24083;55.670;37.568;2023-04-29T04:15:51;101209.16;;;8.26;nan
22096;BME280;24083;55.670;37.568;2023-04-29T04:18:17;101226.44;;;8.33;nan
22096;BME280;24083;55.670;37.568;2023-04-29T04:20:44;101243.75;;;8.37;nan
22096;BME280;24083;55.670;37.568;2023-04-29T04:25:43;101279.03;;;8.85;nan
22096;BME280;24083;55.670;37.568;2023-04-29T04:31:26;101274.56;;;9.02;nan
22096;BME280;24083;55.670;37.568;2023-04-29T04:33:52;101159.19;;;7.62;nan
22096;BME280;24083;55.670;37.568;2023-04-29T04:36:43;101164.84;;;10.21;nan
22096;BME280;24083;55.670;37.568;2023-04-29T04:39:10;101003.22;;;9.64;nan
22096;BME280;24083;55.670;37.568;2023-04-29T04:41:38;100811.28;;;8.54;nan
22096;BME280;24083;55.670;37.568;2023-04-29T04:44:04;100811.88;;;7.99;nan
22096;BME280;24083;55.670;37.568;2023-04-29T04:46:55;100797.59;;;10.08;nan
22096;BME280;24083;55.670;37.568;2023-04-29T04:49:45;100644.72;;;8.69;nan
22096;BME280;24083;55.670;37.568;2023-04-29T04:52:15;100742.50;;;9.83;nan
22096;BME280;24083;55.670;37.568;2023-04-29T04:54:56;100545.34;;;10.24;nan
22096;BME280;24083;55.670;37.568;2023-04-29T04:57:26;100430.78;;;10.20;nan
22096;BME280;24083;55.670;37.568;2023-04-29T04:59:58;100417.19;;;9.72;nan
22096;BME280;24083;55.670;37.568;2023-04-29T05:02:24;100432.53;;;9.47;nan
22096;BME280;24083;55.670;37.568;2023-04-29T05:04:59;100431.66;;;9.05;nan
22096;BME280;24083;55.670;37.568;2023-04-29T05:07:31;100456.31;;;8.39;nan
22096;BME280;24083;55.670;37.568;2023-04-29T05:10:07;100472.09;;;8.26;nan
22096;BME280;24083;55.670;37.568;2023-04-29T05:12:51;100402.91;;;9.53;nan
22096;BME280;24083;55.670;37.568;2023-04-29T05:15:19;100369.31;;;9.78;nan
22096;BME280;24083;55.670;37.568;2023-04-29T05:17:51;100307.38;;;8.81;nan
22096;BME280;24083;55.670;37.568;2023-04-29T05:20:26;100352.88;;;8.12;nan
22096;BME280;24083;55.670;37.568;2023-04-29T05:22:56;100416.78;;;9.53;nan
22096;BME280;24083;55.670;37.568;2023-04-29T05:25:25;100298.44;;;9.30;nan
22096;BME280;24083;55.670;37.568;2023-04-29T05:27:54;100301.44;;;9.84;nan
22096;BME280;24083;55.670;37.568;2023-04-29T05:30:33;100344.47;;;9.64;nan
22096;BME280;24083;55.670;37.568;2023-04-29T05:33:01;100232.28;;;10.05;nan
22096;BME280;24083;55.670;37.568;2023-04-29T05:35:30;100285.38;;;11.73;nan
22096;BME280;24083;55.670;37.568;2023-04-29T05:37:58;100208.53;;;10.16;nan
22096;BME280;24083;55.670;37.568;2023-04-29T05:40:30;100241.31;;;10.23;nan
22096;BME280;24083;55.670;37.568;2023-04-29T05:46:14;100256.59;;;10.67;nan
22096;BME280;24083;55.670;37.568;2023-04-29T05:55:33;100159.06;;;12.46;nan
22096;BME280;24083;55.670;37.568;2023-04-29T05:58:00;99987.22;;;10.12;nan
22096;BME280;24083;55.670;37.568;2023-04-29T06:00:33;100161.41;;;9.94;nan
22096;BME280;24083;55.670;37.568;2023-04-29T06:03:09;100260.38;;;10.57;nan
22096;BME280;24083;55.670;37.568;2023-04-29T06:05:36;100172.47;;;11.14;nan
22096;BME280;24083;55.670;37.568;2023-04-29T06:08:35;100190.16;;;12.08;nan
22096;BME280;24083;55.670;37.568;2023-04-29T06:11:14;99951.25;;;11.45;nan
22096;BME280;24083;55.670;37.568;2023-04-29T06:13:47;99992.50;;;12.48;nan
22096;BME280;24083;55.670;37.568;2023-04-29T06:16:22;99956.19;;;12.82;nan
22096;BME280;24083;55.670;37.568;2023-04-29T06:18:53;99965.13;;;11.69;nan
22096;BME280;24083;55.670;37.568;2023-04-29T06:21:20;99915.22;;;11.55;nan
22096;BME280;24083;55.670;37.568;2023-04-29T06:29:22;99864.94;;;11.27;nan
22096;BME280;24083;55.670;37.568;2023-04-29T06:31:51;99883.81;;;10.88;nan
22096;BME280;24083;55.670;37.568;2023-04-29T06:34:29;99920.84;;;12.52;nan
22096;BME280;24083;55.670;37.568;2023-04-29T06:40:52;99915.81;;;13.82;nan
22096;BME280;24083;55.670;37.568;2023-04-29T06:43:41;99840.50;;;15.04;nan
22096;BME280;24083;55.670;37.568;2023-04-29T06:46:36;99115.69;;;14.26;nan
22096;BME280;24083;55.670;37.568;2023-04-29T06:54:48;98981.56;;;14.98;nan
22096;BME280;24083;55.670;37.568;2023-04-29T06:57:13;98972.94;;;13.90;nan
22096;BME280;24083;55.670;37.568;2023-04-29T06:59:39;98970.25;;;14.45;nan
22096;BME280;24083;55.670;37.568;2023-04-29T07:02:11;98962.38;;;14.32;nan
22096;BME280;24083;55.670;37.568;2023-04-29T07:07:39;98984.78;;;12.06;nan
22096;BME280;24083;55.670;37.568;2023-04-29T07:10:05;98993.69;;;11.69;nan
22096;BME280;24083;55.670;37.568;2023-04-29T07:12:33;98984.44;;;13.60;nan
22096;BME280;24083;55.670;37.568;2023-04-29T07:15:03;98984.81;;;15.15;nan
22096;BME280;24083;55.670;37.568;2023-04-29T07:20:45;98994.63;;;13.35;nan
22096;BME280;24083;55.670;37.568;2023-04-29T07:23:13;98997.09;;;12.04;nan
22096;BME280;24083;55.670;37.568;2023-04-29T07:25:53;99004.38;;;12.29;nan
22096;BME280;24083;55.670;37.568;2023-04-29T07:28:24;99003.69;;;13.01;nan
22096;BME280;24083;55.670;37.568;2023-04-29T07:33:27;99008.44;;;14.36;nan
22096;BME280;24083;55.670;37.568;2023-04-29T07:35:55;99005.91;;;11.53;nan
22096;BME280;24083;55.670;37.568;2023-04-29T07:38:24;99017.72;;;14.67;nan
22096;BME280;24083;55.670;37.568;2023-04-29T07:40:53;99023.22;;;12.04;nan
22096;BME280;24083;55.670;37.568;2023-04-29T07:46:17;99029.91;;;12.40;nan
22096;BME280;24083;55.670;37.568;2023-04-29T07:48:44;99029.31;;;11.70;nan
22096;BME280;24083;55.670;37.568;2023-04-29T07:51:17;99024.66;;;12.70;nan
22096;BME280;24083;55.670;37.568;2023-04-29T07:53:43;99024.03;;;12.67;nan
22096;BME280;24083;55.670;37.568;2023-04-29T07:56:11;99022.13;;;13.99;nan
22096;BME280;24083;55.670;37.568;2023-04-29T07:58:38;99018.84;;;13.54;nan
22096;BME280;24083;55.670;37.568;2023-04-29T08:01:19;99022.47;;;13.80;nan
22096;BME280;24083;55.670;37.568;2023-04-29T08:03:45;99028.50;;;14.22;nan
22096;BME280;24083;55.670;37.568;2023-04-29T08:06:12;99031.06;;;14.24;nan
22096;BME280;24083;55.670;37.568;2023-04-29T08:08:40;99032.19;;;12.91;nan
22096;BME280;24083;55.670;37.568;2023-04-29T08:11:14;99039.22;;;13.19;nan
22096;BME280;24083;55.670;37.568;2023-04-29T08:13:40;99041.34;;;12.07;nan
22096;BME280;24083;55.670;37.568;2023-04-29T08:16:06;99035.47;;;12.34;nan
22096;BME280;24083;55.670;37.568;2023-04-29T08:18:33;99050.28;;;12.49;nan
22096;BME280;24083;55.670;37.568;2023-04-29T08:21:03;99048.22;;;13.44;nan
22096;BME280;24083;55.670;37.568;2023-04-29T08:23:30;99056.88;;;13.88;nan
22096;BME280;24083;55.670;37.568;2023-04-29T08:26:13;99052.94;;;14.50;nan
22096;BME280;24083;55.670;37.568;2023-04-29T08:28:39;99056.03;;;13.01;nan
22096;BME280;24083;55.670;37.568;2023-04-29T08:31:05;99058.50;;;13.18;nan
22096;BME280;24083;55.670;37.568;2023-04-29T08:33:35;99077.75;;;12.10;nan
22096;BME280;24083;55.670;37.568;2023-04-29T08:36:01;99060.41;;;12.86;nan
22096;BME280;24083;55.670;37.568;2023-04-29T08:38:34;99050.28;;;13.68;nan
22096;BME280;24083;55.670;37.568;2023-04-29T08:41:00;99050.25;;;13.39;nan
22096;BME280;24083;55.670;37.568;2023-04-29T08:43:26;99055.84;;;13.33;nan
22096;BME280;24083;55.670;37.568;2023-04-29T08:45:52;99053.47;;;13.44;nan
22096;BME280;24083;55.670;37.568;2023-04-29T08:48:36;99040.88;;;12.91;nan
22096;BME280;24083;55.670;37.568;2023-04-29T08:51:03;99047.41;;;12.99;nan
22096;BME280;24083;55.670;37.568;2023-04-29T08:53:29;99046.75;;;14.92;nan
22096;BME280;24083;55.670;37.568;2023-04-29T08:55:57;99053.69;;;14.80;nan
22096;BME280;24083;55.670;37.568;2023-04-29T08:58:24;99049.25;;;14.93;nan
22096;BME280;24083;55.670;37.568;2023-04-29T09:01:02;99052.66;;;15.21;nan
22096;BME280;24083;55.670;37.568;2023-04-29T09:03:46;99054.97;;;14.32;nan
22096;BME280;24083;55.670;37.568;2023-04-29T09:06:15;99056.56;;;14.07;nan
22096;BME280;24083;55.670;37.568;2023-04-29T09:14:08;99044.53;;;14.98;nan
22096;BME280;24083;55.670;37.568;2023-04-29T09:16:36;99046.25;;;15.25;nan
22096;BME280;24083;55.670;37.568;2023-04-29T09:19:04;99057.69;;;15.24;nan
22096;BME280;24083;55.670;37.568;2023-04-29T09:30:21;99070.09;;;13.72;nan
22096;BME280;24083;55.670;37.568;2023-04-29T09:35:39;99076.38;;;14.66;nan
22096;BME280;24083;55.670;37.568;2023-04-29T09:38:13;99074.75;;;14.51;nan
22096;BME280;24083;55.670;37.568;2023-04-29T09:43:32;99074.81;;;16.06;nan
22096;BME280;24083;55.670;37.568;2023-04-29T09:46:01;99070.19;;;13.71;nan
22096;BME280;24083;55.670;37.568;2023-04-29T09:48:30;99072.97;;;14.79;nan
22096;BME280;24083;55.670;37.568;2023-04-29T09:51:01;99077.97;;;15.22;nan
22096;BME280;24083;55.670;37.568;2023-04-29T09:53:29;99068.91;;;14.60;nan
22096;BME280;24083;55.670;37.568;2023-04-29T09:58:29;99086.19;;;14.90;nan
22096;BME280;24083;55.670;37.568;2023-04-29T10:00:59;99088.97;;;15.53;nan
22096;BME280;24083;55.670;37.568;2023-04-29T10:03:32;99087.59;;;16.48;nan
22096;BME280;24083;55.670;37.568;2023-04-29T10:09:03;99087.38;;;14.31;nan
22096;BME280;24083;55.670;37.568;2023-04-29T10:11:35;99092.09;;;14.81;nan
22096;BME280;24083;55.670;37.568;2023-04-29T10:14:05;99096.31;;;15.87;nan
22096;BME280;24083;55.670;37.568;2023-04-29T10:16:33;99084.13;;;15.47;nan
22096;BME280;24083;55.670;37.568;2023-04-29T10:19:09;99083.88;;;16.26;nan
22096;BME280;24083;55.670;37.568;2023-04-29T10:21:38;99091.16;;;15.08;nan
22096;BME280;24083;55.670;37.568;2023-04-29T10:24:07;99098.78;;;14.85;nan
22096;BME280;24083;55.670;37.568;2023-04-29T10:26:36;99093.97;;;14.79;nan
22096;BME280;24083;55.670;37.568;2023-04-29T10:29:06;99091.81;;;16.13;nan
22096;BME280;24083;55.670;37.568;2023-04-29T10:31:34;99106.09;;;15.72;nan
22096;BME280;24083;55.670;37.568;2023-04-29T10:34:00;99110.63;;;15.18;nan
22096;BME280;24083;55.670;37.568;2023-04-29T10:36:27;99110.75;;;14.89;nan
22096;BME280;24083;55.670;37.568;2023-04-29T10:41:36;99118.88;;;15.77;nan
22096;BME280;24083;55.670;37.568;2023-04-29T10:44:17;99124.41;;;15.86;nan
22096;BME280;24083;55.670;37.568;2023-04-29T10:46:44;99124.34;;;17.21;nan
22096;BME280;24083;55.670;37.568;2023-04-29T10:51:42;99124.63;;;16.69;nan
22096;BME280;24083;55.670;37.568;2023-04-29T10:56:54;99138.09;;;14.99;nan
22096;BME280;24083;55.670;37.568;2023-04-29T11:01:54;99140.97;;;14.54;nan
22096;BME280;24083;55.670;37.568;2023-04-29T11:04:21;99137.72;;;16.58;nan
22096;BME280;24083;55.670;37.568;2023-04-29T11:06:50;99137.72;;;15.32;nan
22096;BME280;24083;55.670;37.568;2023-04-29T11:09:23;99145.78;;;16.43;nan
22096;BME280;24083;55.670;37.568;2023-04-29T11:14:48;99146.91;;;16.52;nan
22096;BME280;24083;55.670;37.568;2023-04-29T11:17:15;99148.97;;;16.84;nan
22096;BME280;24083;55.670;37.568;2023-04-29T11:25:04;99137.06;;;16.67;nan
22096;BME280;24083;55.670;37.568;2023-04-29T11:27:32;99140.72;;;17.83;nan
22096;BME280;24083;55.670;37.568;2023-04-29T11:30:00;99131.13;;;17.93;nan
22096;BME280;24083;55.670;37.568;2023-04-29T11:35:15;99146.75;;;15.79;nan
22096;BME280;24083;55.670;37.568;2023-04-29T11:37:44;99153.53;;;16.58;nan
22096;BME280;24083;55.670;37.568;2023-04-29T11:40:10;99149.44;;;16.16;nan
22096;BME280;24083;55.670;37.568;2023-04-29T11:42:42;99145.22;;;16.27;nan
22096;BME280;24083;55.670;37.568;2023-04-29T11:45:09;99129.53;;;16.98;nan
22096;BME280;24083;55.670;37.568;2023-04-29T11:47:34;99132.19;;;16.74;nan
22096;BME280;24083;55.670;37.568;2023-04-29T11:50:04;99134.91;;;18.46;nan
22096;BME280;24083;55.670;37.568;2023-04-29T11:52:31;99130.84;;;18.42;nan
22096;BME280;24083;55.670;37.568;2023-04-29T11:57:31;99122.72;;;17.65;nan
22096;BME280;24083;55.670;37.568;2023-04-29T11:59:59;99124.63;;;18.32;nan
22096;BME280;24083;55.670;37.568;2023-04-29T12:03:06;99125.22;;;17.44;nan
22096;BME280;24083;55.670;37.568;2023-04-29T12:05:34;99122.84;;;16.45;nan
22096;BME280;24083;55.670;37.568;2023-04-29T12:11:07;99132.28;;;16.24;nan
22096;BME280;24083;55.670;37.568;2023-04-29T12:13:34;99137.53;;;15.86;nan
22096;BME280;24083;55.670;37.568;2023-04-29T12:16:02;99134.56;;;15.52;nan
22096;BME280;24083;55.670;37.568;2023-04-29T12:18:29;99136.69;;;16.60;nan
22096;BME280;24083;55.670;37.568;2023-04-29T12:20:56;99138.53;;;17.65;nan
22096;BME280;24083;55.670;37.568;2023-04-29T12:23:23;99132.66;;;17.96;nan
22096;BME280;24083;55.670;37.568;2023-04-29T12:25:52;99124.25;;;19.23;nan
22096;BME280;24083;55.670;37.568;2023-04-29T12:28:20;99128.03;;;20.23;nan
22096;BME280;24083;55.670;37.568;2023-04-29T12:30:46;99121.22;;;20.11;nan
22096;BME280;24083;55.670;37.568;2023-04-29T12:33:22;99122.34;;;17.36;nan
22096;BME280;24083;55.670;37.568;2023-04-29T12:38:34;99121.25;;;18.30;nan
22096;BME280;24083;55.670;37.568;2023-04-29T12:41:34;99124.47;;;19.10;nan
22096;BME280;24083;55.670;37.568;2023-04-29T12:44:01;99126.75;;;19.77;nan
22096;BME280;24083;55.670;37.568;2023-04-29T12:46:40;99118.63;;;18.95;nan
22096;BME280;24083;55.670;37.568;2023-04-29T12:49:07;99127.13;;;18.66;nan
22096;BME280;24083;55.670;37.568;2023-04-29T12:51:32;99126.34;;;20.12;nan
22096;BME280;24083;55.670;37.568;2023-04-29T12:54:01;99134.69;;;19.46;nan
22096;BME280;24083;55.670;37.568;2023-04-29T12:59:05;99126.06;;;18.24;nan
22096;BME280;24083;55.670;37.568;2023-04-29T13:01:33;99118.63;;;17.50;nan
22096;BME280;24083;55.670;37.568;2023-04-29T13:06:53;99113.28;;;17.63;nan
22096;BME280;24083;55.670;37.568;2023-04-29T13:11:54;99116.19;;;18.49;nan
22096;BME280;24083;55.670;37.568;2023-04-29T13:14:20;99114.81;;;17.77;nan
22096;BME280;24083;55.670;37.568;2023-04-29T13:16:48;99104.78;;;19.76;nan
22096;BME280;24083;55.670;37.568;2023-04-29T13:19:31;99102.69;;;21.29;nan
22096;BME280;24083;55.670;37.568;2023-04-29T13:21:59;99102.22;;;20.86;nan
22096;BME280;24083;55.670;37.568;2023-04-29T13:24:24;99097.25;;;22.96;nan
22096;BME280;24083;55.670;37.568;2023-04-29T13:26:51;99090.88;;;20.64;nan
22096;BME280;24083;55.670;37.568;2023-04-29T13:29:17;99108.81;;;20.21;nan
22096;BME280;24083;55.670;37.568;2023-04-29T13:34:13;99098.91;;;21.31;nan
22096;BME280;24083;55.670;37.568;2023-04-29T13:36:39;99107.19;;;19.27;nan
22096;BME280;24083;55.670;37.568;2023-04-29T13:39:05;99109.75;;;19.69;nan
22096;BME280;24083;55.670;37.568;2023-04-29T13:41:33;99110.69;;;18.30;nan
22096;BME280;24083;55.670;37.568;2023-04-29T13:44:01;99107.13;;;18.63;nan
22096;BME280;24083;55.670;37.568;2023-04-29T13:46:26;99103.56;;;17.98;nan
22096;BME280;24083;55.670;37.568;2023-04-29T13:48:53;99107.88;;;17.76;nan
22096;BME280;24083;55.670;37.568;2023-04-29T13:51:19;99099.47;;;18.16;nan
22096;BME280;24083;55.670;37.568;2023-04-29T13:53:49;99103.22;;;18.46;nan
22096;BME280;24083;55.670;37.568;2023-04-29T13:56:16;99120.13;;;18.00;nan
22096;BME280;24083;55.670;37.568;2023-04-29T13:58:42;99120.16;;;16.34;nan
22096;BME280;24083;55.670;37.568;2023-04-29T14:01:10;99113.78;;;17.10;nan
22096;BME280;24083;55.670;37.568;2023-04-29T14:03:36;99122.59;;;16.49;nan
22096;BME280;24083;55.670;37.568;2023-04-29T14:06:02;99107.78;;;16.47;nan
22096;BME280;24083;55.670;37.568;2023-04-29T14:08:29;99108.72;;;17.54;nan
22096;BME280;24083;55.670;37.568;2023-04-29T14:10:56;99109.38;;;17.10;nan
22096;BME280;24083;55.670;37.568;2023-04-29T14:13:27;99109.41;;;16.37;nan
22096;BME280;24083;55.670;37.568;2023-04-29T14:15:55;99110.44;;;16.83;nan
22096;BME280;24083;55.670;37.568;2023-04-29T14:18:22;99105.34;;;16.93;nan
22096;BME280;24083;55.670;37.568;2023-04-29T14:20:49;99110.97;;;16.64;nan
22096;BME280;24083;55.670;37.568;2023-04-29T14:25:46;99108.19;;;16.30;nan
22096;BME280;24083;55.670;37.568;2023-04-29T14:30:42;99085.00;;;21.57;nan
22096;BME280;24083;55.670;37.568;2023-04-29T14:33:11;99070.59;;;22.44;nan
22096;BME280;24083;55.670;37.568;2023-04-29T14:38:33;99081.84;;;23.96;nan
22096;BME280;24083;55.670;37.568;2023-04-29T14:43:34;99082.22;;;24.01;nan
22096;BME280;24083;55.670;37.568;2023-04-29T14:46:01;99082.09;;;23.33;nan
22096;BME280;24083;55.670;37.568;2023-04-29T14:51:19;99088.66;;;22.12;nan
22096;BME280;24083;55.670;37.568;2023-04-29T14:53:48;99081.38;;;22.60;nan
22096;BME280;24083;55.670;37.568;2023-04-29T14:56:15;99072.53;;;24.93;nan
22096;BME280;24083;55.670;37.568;2023-04-29T15:01:11;99087.25;;;22.90;nan
22096;BME280;24083;55.670;37.568;2023-04-29T15:03:36;99088.13;;;23.86;nan
22096;BME280;24083;55.670;37.568;2023-04-29T15:06:03;99075.19;;;23.92;nan
22096;BME280;24083;55.670;37.568;2023-04-29T15:08:29;99083.47;;;23.80;nan
22096;BME280;24083;55.670;37.568;2023-04-29T15:14:45;99082.34;;;24.67;nan
22096;BME280;24083;55.670;37.568;2023-04-29T15:17:48;99077.91;;;25.57;nan
22096;BME280;24083;55.670;37.568;2023-04-29T15:20:17;99078.38;;;26.32;nan
22096;BME280;24083;55.670;37.568;2023-04-29T15:22:45;99082.34;;;21.95;nan
22096;BME280;24083;55.670;37.568;2023-04-29T15:25:11;99084.88;;;23.23;nan
22096;BME280;24083;55.670;37.568;2023-04-29T15:27:37;99086.31;;;23.00;nan
22096;BME280;24083;55.670;37.568;2023-04-29T15:30:03;99084.97;;;22.95;nan
22096;BME280;24083;55.670;37.568;2023-04-29T15:32:30;99090.38;;;23.30;nan
22096;BME280;24083;55.670;37.568;2023-04-29T15:37:47;99075.88;;;25.68;nan
22096;BME280;24083;55.670;37.568;2023-04-29T15:40:16;99086.25;;;26.57;nan
22096;BME280;24083;55.670;37.568;2023-04-29T15:42:43;99080.78;;;27.12;nan
22096;BME280;24083;55.670;37.568;2023-04-29T15:45:11;99087.53;;;26.15;nan
22096;BME280;24083;55.670;37.568;2023-04-29T15:47:37;99076.28;;;27.58;nan
22096;BME280;24083;55.670;37.568;2023-04-29T15:50:03;99077.34;;;24.97;nan
22096;BME280;24083;55.670;37.568;2023-04-29T15:52:29;99081.19;;;26.39;nan
22096;BME280;24083;55.670;37.568;2023-04-29T15:54:56;99083.88;;;26.86;nan
22096;BME280;24083;55.670;37.568;2023-04-29T15:57:23;99080.00;;;26.10;nan
22096;BME280;24083;55.670;37.568;2023-04-29T16:02:19;99081.31;;;24.52;nan
22096;BME280;24083;55.670;37.568;2023-04-29T16:04:46;99082.59;;;26.96;nan
22096;BME280;24083;55.670;37.568;2023-04-29T16:07:12;99088.13;;;26.72;nan
22096;BME280;24083;55.670;37.568;2023-04-29T16:12:32;99093.25;;;25.55;nan
22096;BME280;24083;55.670;37.568;2023-04-29T16:18:09;99104.44;;;20.90;nan
22096;BME280;24083;55.670;37.568;2023-04-29T16:20:49;99111.72;;;22.12;nan
22096;BME280;24083;55.670;37.568;2023-04-29T16:23:18;99110.84;;;21.93;nan
22096;BME280;24083;55.670;37.568;2023-04-29T16:25:45;99111.66;;;23.12;nan
22096;BME280;24083;55.670;37.568;2023-04-29T16:28:10;99113.50;;;22.93;nan
22096;BME280;24083;55.670;37.568;2023-04-29T16:30:40;99118.50;;;24.02;nan
22096;BME280;24083;55.670;37.568;2023-04-29T16:33:14;99122.81;;;20.63;nan
22096;BME280;24083;55.670;37.568;2023-04-29T16:35:41;99134.31;;;19.81;nan
22096;BME280;24083;55.670;37.568;2023-04-29T16:44:04;99137.31;;;18.38;nan
22096;BME280;24083;55.670;37.568;2023-04-29T16:46:38;99129.72;;;19.31;nan
22096;BME280;24083;55.670;37.568;2023-04-29T16:49:03;99140.44;;;17.63;nan